sensor_id;sensor_type;location;lat;lon;timestamp;pressure;altitude;pressure_sealevel;temperature;humidity
54194;BME280;40102;50.906;6.972;2023-06-04T00:00:25;101279.63;;;20.13;33.41
54194;BME280;40102;50.906;6.972;2023-06-04T00:02:50;101278.66;;;20.14;33.39
54194;BME280;40102;50.906;6.972;2023-06-04T00:05:15;101282.34;;;20.13;33.55
54194;BME280;40102;50.906;6.972;2023-06-04T00:07:41;101279.03;;;20.10;33.94
54194;BME280;40102;50.906;6.972;2023-06-04T00:10:06;101283.63;;;20.09;33.96
54194;BME280;40102;50.906;6.972;2023-06-04T00:12:32;101277.47;;;20.07;33.73
54194;BME280;40102;50.906;6.972;2023-06-04T00:14:57;101272.44;;;20.02;34.10
54194;BME280;40102;50.906;6.972;2023-06-04T00:17:23;101276.41;;;19.98;34.46
54194;BME280;40102;50.906;6.972;2023-06-04T00:19:48;101276.78;;;19.94;34.15
54194;BME280;40102;50.906;6.972;2023-06-04T00:22:13;101279.78;;;19.91;34.36
54194;BME280;40102;50.906;6.972;2023-06-04T00:24:39;101276.19;;;19.90;34.10
54194;BME280;40102;50.906;6.972;2023-06-04T00:27:09;101279.03;;;19.89;34.40
54194;BME280;40102;50.906;6.972;2023-06-04T00:29:34;101278.31;;;19.87;34.37
54194;BME280;40102;50.906;6.972;2023-06-04T00:32:00;101270.44;;;19.84;34.75
54194;BME280;40102;50.906;6.972;2023-06-04T00:34:25;101275.28;;;19.80;34.68
54194;BME280;40102;50.906;6.972;2023-06-04T00:36:51;101269.75;;;19.70;35.04
54194;BME280;40102;50.906;6.972;2023-06-04T00:39:32;101271.41;;;19.62;35.07
54194;BME280;40102;50.906;6.972;2023-06-04T00:42:22;101264.66;;;19.45;35.82
54194;BME280;40102;50.906;6.972;2023-06-04T00:44:57;101271.59;;;19.38;35.90
54194;BME280;40102;50.906;6.972;2023-06-04T00:47:23;101279.47;;;19.41;36.17
54194;BME280;40102;50.906;6.972;2023-06-04T00:49:49;101267.88;;;19.39;36.17
54194;BME280;40102;50.906;6.972;2023-06-04T00:52:15;101278.97;;;19.47;36.45
54194;BME280;40102;50.906;6.972;2023-06-04T00:54:41;101271.81;;;19.46;36.29
54194;BME280;40102;50.906;6.972;2023-06-04T00:57:12;101276.84;;;19.51;36.20
54194;BME280;40102;50.906;6.972;2023-06-04T00:59:39;101268.72;;;19.51;36.42
54194;BME280;40102;50.906;6.972;2023-06-04T01:02:14;101268.72;;;19.51;36.37
54194;BME280;40102;50.906;6.972;2023-06-04T01:04:46;101268.97;;;19.48;36.54
54194;BME280;40102;50.906;6.972;2023-06-04T01:07:18;101277.97;;;19.48;36.37
54194;BME280;40102;50.906;6.972;2023-06-04T01:09:45;101270.81;;;19.47;36.35
54194;BME280;40102;50.906;6.972;2023-06-04T01:12:11;101282.41;;;19.49;36.50
54194;BME280;40102;50.906;6.972;2023-06-04T01:14:37;101276.25;;;19.47;36.50
54194;BME280;40102;50.906;6.972;2023-06-04T01:17:07;101277.38;;;19.45;36.62
54194;BME280;40102;50.906;6.972;2023-06-04T01:22:42;101274.06;;;19.41;36.70
54194;BME280;40102;50.906;6.972;2023-06-04T01:25:32;101269.75;;;19.38;36.91
54194;BME280;40102;50.906;6.972;2023-06-04T01:27:59;101269.13;;;19.35;37.18
54194;BME280;40102;50.906;6.972;2023-06-04T01:30:30;101274.81;;;19.32;37.02
54194;BME280;40102;50.906;6.972;2023-06-04T01:32:57;101269.91;;;19.26;37.10
54194;BME280;40102;50.906;6.972;2023-06-04T01:35:23;101278.31;;;19.23;37.21
54194;BME280;40102;50.906;6.972;2023-06-04T01:37:49;101276.72;;;19.20;37.57
54194;BME280;40102;50.906;6.972;2023-06-04T01:40:15;101273.25;;;19.18;37.55
54194;BME280;40102;50.906;6.972;2023-06-04T01:42:43;101276.09;;;19.17;37.73
54194;BME280;40102;50.906;6.972;2023-06-04T01:45:09;101270.94;;;19.14;37.86
54194;BME280;40102;50.906;6.972;2023-06-04T01:47:35;101269.22;;;19.13;38.15
54194;BME280;40102;50.906;6.972;2023-06-04T01:50:05;101266.00;;;19.07;38.07
54194;BME280;40102;50.906;6.972;2023-06-04T01:52:37;101278.59;;;19.08;38.16
54194;BME280;40102;50.906;6.972;2023-06-04T01:55:04;101278.09;;;19.03;38.12
54194;BME280;40102;50.906;6.972;2023-06-04T01:57:30;101279.81;;;19.04;38.27
54194;BME280;40102;50.906;6.972;2023-06-04T01:59:55;101288.09;;;19.03;38.41
54194;BME280;40102;50.906;6.972;2023-06-04T02:02:21;101281.91;;;19.01;38.53
54194;BME280;40102;50.906;6.972;2023-06-04T02:04:47;101285.63;;;19.00;39.03
54194;BME280;40102;50.906;6.972;2023-06-04T02:07:13;101279.47;;;18.98;38.89
54194;BME280;40102;50.906;6.972;2023-06-04T02:09:48;101274.41;;;18.93;38.99
54194;BME280;40102;50.906;6.972;2023-06-04T02:12:14;101271.22;;;18.88;39.13
54194;BME280;40102;50.906;6.972;2023-06-04T02:14:39;101280.47;;;18.86;39.34
54194;BME280;40102;50.906;6.972;2023-06-04T02:17:07;101280.59;;;18.84;39.21
54194;BME280;40102;50.906;6.972;2023-06-04T02:19:40;101281.31;;;18.86;39.40
54194;BME280;40102;50.906;6.972;2023-06-04T02:22:12;101275.41;;;18.81;39.60
54194;BME280;40102;50.906;6.972;2023-06-04T02:24:41;101279.13;;;18.80;39.74
54194;BME280;40102;50.906;6.972;2023-06-04T02:27:08;101291.81;;;18.80;39.70
54194;BME280;40102;50.906;6.972;2023-06-04T02:29:33;101285.78;;;18.76;39.62
54194;BME280;40102;50.906;6.972;2023-06-04T02:31:59;101288.34;;;18.77;39.51
54194;BME280;40102;50.906;6.972;2023-06-04T02:34:24;101284.78;;;18.77;39.67
54194;BME280;40102;50.906;6.972;2023-06-04T02:36:50;101291.19;;;18.76;39.94
54194;BME280;40102;50.906;6.972;2023-06-04T02:39:19;101298.59;;;18.74;40.21
54194;BME280;40102;50.906;6.972;2023-06-04T02:41:45;101284.41;;;18.70;40.29
54194;BME280;40102;50.906;6.972;2023-06-04T02:44:10;101293.53;;;18.69;40.70
54194;BME280;40102;50.906;6.972;2023-06-04T02:46:36;101287.50;;;18.66;40.94
54194;BME280;40102;50.906;6.972;2023-06-04T02:49:02;101296.88;;;18.62;41.16
54194;BME280;40102;50.906;6.972;2023-06-04T02:51:27;101296.94;;;18.60;41.40
54194;BME280;40102;50.906;6.972;2023-06-04T02:53:53;101297.44;;;18.54;41.90
54194;BME280;40102;50.906;6.972;2023-06-04T02:56:19;101298.66;;;18.50;42.03
54194;BME280;40102;50.906;6.972;2023-06-04T02:58:49;101298.78;;;18.49;41.77
54194;BME280;40102;50.906;6.972;2023-06-04T03:01:25;101292.75;;;18.45;42.32
54194;BME280;40102;50.906;6.972;2023-06-04T03:03:51;101299.16;;;18.44;42.29
54194;BME280;40102;50.906;6.972;2023-06-04T03:06:18;101298.41;;;18.42;42.10
54194;BME280;40102;50.906;6.972;2023-06-04T03:08:45;101296.56;;;18.42;42.16
54194;BME280;40102;50.906;6.972;2023-06-04T03:11:11;101293.13;;;18.40;42.35
54194;BME280;40102;50.906;6.972;2023-06-04T03:13:38;101303.34;;;18.37;42.63
54194;BME280;40102;50.906;6.972;2023-06-04T03:16:03;101302.72;;;18.33;42.52
54194;BME280;40102;50.906;6.972;2023-06-04T03:18:29;101303.69;;;18.32;42.61
54194;BME280;40102;50.906;6.972;2023-06-04T03:20:54;101293.22;;;18.28;42.18
54194;BME280;40102;50.906;6.972;2023-06-04T03:23:23;101296.94;;;18.27;42.32
54194;BME280;40102;50.906;6.972;2023-06-04T03:25:48;101294.22;;;18.27;42.30
54194;BME280;40102;50.906;6.972;2023-06-04T03:28:13;101300.63;;;18.26;42.17
54194;BME280;40102;50.906;6.972;2023-06-04T03:30:40;101296.94;;;18.27;42.22
54194;BME280;40102;50.906;6.972;2023-06-04T03:33:06;101292.63;;;18.24;42.23
54194;BME280;40102;50.906;6.972;2023-06-04T03:35:31;101293.47;;;18.25;42.21
54194;BME280;40102;50.906;6.972;2023-06-04T03:37:57;101298.03;;;18.24;42.33
54194;BME280;40102;50.906;6.972;2023-06-04T03:40:22;101304.44;;;18.23;42.49
54194;BME280;40102;50.906;6.972;2023-06-04T03:42:50;101291.50;;;18.16;42.15
54194;BME280;40102;50.906;6.972;2023-06-04T03:45:16;101292.22;;;18.18;42.00
54194;BME280;40102;50.906;6.972;2023-06-04T03:47:41;101295.06;;;18.16;42.09
54194;BME280;40102;50.906;6.972;2023-06-04T03:50:07;101296.78;;;18.17;42.18
54194;BME280;40102;50.906;6.972;2023-06-04T03:52:32;101302.44;;;18.14;42.37
54194;BME280;40102;50.906;6.972;2023-06-04T03:54:58;101300.84;;;18.11;42.24
54194;BME280;40102;50.906;6.972;2023-06-04T03:57:23;101295.66;;;18.08;42.44
54194;BME280;40102;50.906;6.972;2023-06-04T03:59:49;101288.88;;;18.03;42.62
54194;BME280;40102;50.906;6.972;2023-06-04T04:02:15;101289.00;;;18.01;42.86
54194;BME280;40102;50.906;6.972;2023-06-04T04:04:42;101293.56;;;18.01;42.68
54194;BME280;40102;50.906;6.972;2023-06-04T04:07:07;101282.47;;;17.93;42.82
54194;BME280;40102;50.906;6.972;2023-06-04T04:09:34;101291.09;;;17.98;43.02
54194;BME280;40102;50.906;6.972;2023-06-04T04:11:59;101282.47;;;17.93;42.79
54194;BME280;40102;50.906;6.972;2023-06-04T04:14:25;101295.00;;;17.94;43.04
54194;BME280;40102;50.906;6.972;2023-06-04T04:16:50;101299.31;;;17.96;43.29
54194;BME280;40102;50.906;6.972;2023-06-04T04:19:16;101301.03;;;17.97;43.28
54194;BME280;40102;50.906;6.972;2023-06-04T04:21:41;101307.31;;;17.98;43.18
54194;BME280;40102;50.906;6.972;2023-06-04T04:24:07;101303.88;;;17.96;43.33
54194;BME280;40102;50.906;6.972;2023-06-04T04:26:34;101299.56;;;17.93;43.19
54194;BME280;40102;50.906;6.972;2023-06-04T04:29:00;101300.78;;;17.89;43.45
54194;BME280;40102;50.906;6.972;2023-06-04T04:31:28;101297.22;;;17.89;43.82
54194;BME280;40102;50.906;6.972;2023-06-04T04:33:55;101297.31;;;17.87;43.60
54194;BME280;40102;50.906;6.972;2023-06-04T04:36:21;101289.44;;;17.84;43.46
54194;BME280;40102;50.906;6.972;2023-06-04T04:38:46;101293.88;;;17.85;43.49
54194;BME280;40102;50.906;6.972;2023-06-04T04:41:19;101299.16;;;17.87;43.69
54194;BME280;40102;50.906;6.972;2023-06-04T04:43:46;101293.41;;;17.91;43.69
54194;BME280;40102;50.906;6.972;2023-06-04T04:46:11;101300.31;;;17.95;43.72
54194;BME280;40102;50.906;6.972;2023-06-04T04:48:37;101301.78;;;17.99;43.24
54194;BME280;40102;50.906;6.972;2023-06-04T04:51:03;101300.69;;;18.02;43.17
54194;BME280;40102;50.906;6.972;2023-06-04T04:53:29;101301.44;;;18.04;43.20
54194;BME280;40102;50.906;6.972;2023-06-04T04:55:54;101308.69;;;18.03;43.26
54194;BME280;40102;50.906;6.972;2023-06-04T04:58:20;101305.00;;;18.04;43.38
54194;BME280;40102;50.906;6.972;2023-06-04T05:00:45;101304.13;;;18.04;43.50
54194;BME280;40102;50.906;6.972;2023-06-04T05:03:13;101314.97;;;18.04;43.26
54194;BME280;40102;50.906;6.972;2023-06-04T05:05:38;101311.28;;;18.05;43.29
54194;BME280;40102;50.906;6.972;2023-06-04T05:08:04;101309.31;;;18.07;42.97
54194;BME280;40102;50.906;6.972;2023-06-04T05:10:29;101306.97;;;18.02;43.31
54194;BME280;40102;50.906;6.972;2023-06-04T05:12:58;101309.03;;;17.99;43.00
54194;BME280;40102;50.906;6.972;2023-06-04T05:15:25;101323.31;;;18.01;42.82
54194;BME280;40102;50.906;6.972;2023-06-04T05:17:52;101311.75;;;17.99;42.97
54194;BME280;40102;50.906;6.972;2023-06-04T05:20:18;101313.34;;;18.01;42.81
54194;BME280;40102;50.906;6.972;2023-06-04T05:22:44;101325.03;;;18.02;42.58
54194;BME280;40102;50.906;6.972;2023-06-04T05:25:11;101317.66;;;18.04;42.44
54194;BME280;40102;50.906;6.972;2023-06-04T05:27:37;101310.66;;;18.01;41.97
54194;BME280;40102;50.906;6.972;2023-06-04T05:30:06;101313.47;;;18.00;41.48
54194;BME280;40102;50.906;6.972;2023-06-04T05:32:32;101319.41;;;18.05;41.39
54194;BME280;40102;50.906;6.972;2023-06-04T05:34:58;101326.66;;;18.04;41.38
54194;BME280;40102;50.906;6.972;2023-06-04T05:37:25;101323.72;;;18.07;41.58
54194;BME280;40102;50.906;6.972;2023-06-04T05:39:55;101323.47;;;18.10;41.37
54194;BME280;40102;50.906;6.972;2023-06-04T05:42:22;101320.66;;;18.12;41.35
54194;BME280;40102;50.906;6.972;2023-06-04T05:44:48;101325.69;;;18.17;41.30
54194;BME280;40102;50.906;6.972;2023-06-04T05:47:13;101325.59;;;18.18;41.27
54194;BME280;40102;50.906;6.972;2023-06-04T05:49:38;101326.44;;;18.19;40.44
54194;BME280;40102;50.906;6.972;2023-06-04T05:52:04;101327.31;;;18.19;40.57
54194;BME280;40102;50.906;6.972;2023-06-04T05:54:30;101326.69;;;18.16;40.14
54194;BME280;40102;50.906;6.972;2023-06-04T05:56:55;101330.25;;;18.16;40.38
54194;BME280;40102;50.906;6.972;2023-06-04T05:59:21;101335.31;;;18.21;40.36
54194;BME280;40102;50.906;6.972;2023-06-04T06:01:47;101328.28;;;18.18;40.36
54194;BME280;40102;50.906;6.972;2023-06-04T06:04:15;101335.31;;;18.21;40.23
54194;BME280;40102;50.906;6.972;2023-06-04T06:06:42;101327.94;;;18.23;40.16
54194;BME280;40102;50.906;6.972;2023-06-04T06:09:14;101335.47;;;18.30;39.84
54194;BME280;40102;50.906;6.972;2023-06-04T06:11:40;101334.72;;;18.28;40.02
54194;BME280;40102;50.906;6.972;2023-06-04T06:14:06;101338.16;;;18.30;40.21
54194;BME280;40102;50.906;6.972;2023-06-04T06:16:31;101335.47;;;18.30;40.13
54194;BME280;40102;50.906;6.972;2023-06-04T06:18:58;101343.81;;;18.27;40.92
54194;BME280;40102;50.906;6.972;2023-06-04T06:21:23;101348.00;;;18.20;39.76
54194;BME280;40102;50.906;6.972;2023-06-04T06:23:48;101349.41;;;18.02;38.14
54194;BME280;40102;50.906;6.972;2023-06-04T06:26:14;101352.19;;;17.89;38.75
54194;BME280;40102;50.906;6.972;2023-06-04T06:28:39;101354.38;;;17.84;38.57
54194;BME280;40102;50.906;6.972;2023-06-04T06:31:05;101355.00;;;17.88;38.33
54194;BME280;40102;50.906;6.972;2023-06-04T06:33:30;101363.28;;;17.97;38.47
54194;BME280;40102;50.906;6.972;2023-06-04T06:35:56;101354.59;;;18.05;38.36
54194;BME280;40102;50.906;6.972;2023-06-04T06:38:25;101353.00;;;18.13;38.38
54194;BME280;40102;50.906;6.972;2023-06-04T06:40:52;101360.41;;;18.23;38.18
54194;BME280;40102;50.906;6.972;2023-06-04T06:43:17;101361.91;;;18.27;38.59
54194;BME280;40102;50.906;6.972;2023-06-04T06:45:43;101363.28;;;18.32;38.75
54194;BME280;40102;50.906;6.972;2023-06-04T06:48:08;101367.47;;;18.36;38.62
54194;BME280;40102;50.906;6.972;2023-06-04T06:50:33;101367.13;;;18.41;38.37
54194;BME280;40102;50.906;6.972;2023-06-04T06:53:01;101374.13;;;18.43;38.32
54194;BME280;40102;50.906;6.972;2023-06-04T06:55:27;101377.34;;;18.49;38.12
54194;BME280;40102;50.906;6.972;2023-06-04T06:57:52;101369.84;;;18.52;37.98
54194;BME280;40102;50.906;6.972;2023-06-04T07:00:18;101375.75;;;18.57;38.27
54194;BME280;40102;50.906;6.972;2023-06-04T07:02:44;101370.09;;;18.60;37.88
54194;BME280;40102;50.906;6.972;2023-06-04T07:05:11;101368.91;;;18.64;38.11
54194;BME280;40102;50.906;6.972;2023-06-04T07:07:36;101366.06;;;18.66;37.54
54194;BME280;40102;50.906;6.972;2023-06-04T07:10:02;101368.53;;;18.69;37.91
54194;BME280;40102;50.906;6.972;2023-06-04T07:12:29;101361.28;;;18.69;38.02
54194;BME280;40102;50.906;6.972;2023-06-04T07:14:55;101375.31;;;18.74;37.73
54194;BME280;40102;50.906;6.972;2023-06-04T07:17:21;101366.31;;;18.74;37.77
54194;BME280;40102;50.906;6.972;2023-06-04T07:19:47;101369.41;;;18.81;38.02
54194;BME280;40102;50.906;6.972;2023-06-04T07:22:12;101370.28;;;18.81;37.84
54194;BME280;40102;50.906;6.972;2023-06-04T07:24:40;101373.72;;;18.83;37.81
54194;BME280;40102;50.906;6.972;2023-06-04T07:27:13;101368.91;;;18.87;37.79
54194;BME280;40102;50.906;6.972;2023-06-04T07:29:39;101370.78;;;18.86;37.27
54194;BME280;40102;50.906;6.972;2023-06-04T07:32:05;101367.06;;;18.87;37.69
54194;BME280;40102;50.906;6.972;2023-06-04T07:34:31;101373.22;;;18.89;37.55
54194;BME280;40102;50.906;6.972;2023-06-04T07:36:57;101371.25;;;18.91;37.78
54194;BME280;40102;50.906;6.972;2023-06-04T07:39:22;101372.75;;;18.95;37.53
54194;BME280;40102;50.906;6.972;2023-06-04T07:41:47;101368.91;;;18.98;37.51
54194;BME280;40102;50.906;6.972;2023-06-04T07:44:13;101370.53;;;19.00;37.48
54194;BME280;40102;50.906;6.972;2023-06-04T07:46:38;101369.16;;;19.06;37.50
54194;BME280;40102;50.906;6.972;2023-06-04T07:49:04;101354.50;;;19.08;37.36
54194;BME280;40102;50.906;6.972;2023-06-04T07:51:29;101356.84;;;19.13;37.20
54194;BME280;40102;50.906;6.972;2023-06-04T07:53:54;101357.06;;;19.21;37.02
54194;BME280;40102;50.906;6.972;2023-06-04T07:56:20;101359.66;;;19.23;36.99
54194;BME280;40102;50.906;6.972;2023-06-04T07:58:46;101357.69;;;19.25;37.25
54194;BME280;40102;50.906;6.972;2023-06-04T08:01:12;101363.47;;;19.31;38.38
54194;BME280;40102;50.906;6.972;2023-06-04T08:03:37;101360.97;;;19.39;39.08
54194;BME280;40102;50.906;6.972;2023-06-04T08:06:03;101355.19;;;19.44;41.21
54194;BME280;40102;50.906;6.972;2023-06-04T08:08:29;101366.38;;;19.51;39.03
54194;BME280;40102;50.906;6.972;2023-06-04T08:10:54;101363.56;;;19.52;41.59
54194;BME280;40102;50.906;6.972;2023-06-04T08:13:19;101355.28;;;19.65;43.82
54194;BME280;40102;50.906;6.972;2023-06-04T08:15:46;101361.66;;;19.75;42.13
54194;BME280;40102;50.906;6.972;2023-06-04T08:18:11;101350.75;;;19.86;42.53
54194;BME280;40102;50.906;6.972;2023-06-04T08:20:36;101349.56;;;20.00;42.53
54194;BME280;40102;50.906;6.972;2023-06-04T08:23:02;101350.03;;;20.05;41.43
54194;BME280;40102;50.906;6.972;2023-06-04T08:25:27;101355.22;;;20.08;39.65
54194;BME280;40102;50.906;6.972;2023-06-04T08:27:55;101349.66;;;20.10;39.49
54194;BME280;40102;50.906;6.972;2023-06-04T08:30:21;101341.16;;;20.03;35.64
54194;BME280;40102;50.906;6.972;2023-06-04T08:32:46;101350.97;;;19.94;35.66
54194;BME280;40102;50.906;6.972;2023-06-04T08:35:12;101349.97;;;19.95;36.05
54194;BME280;40102;50.906;6.972;2023-06-04T08:37:37;101338.72;;;20.00;36.89
54194;BME280;40102;50.906;6.972;2023-06-04T08:40:03;101344.63;;;20.05;37.31
54194;BME280;40102;50.906;6.972;2023-06-04T08:42:31;101338.91;;;20.08;36.13
54194;BME280;40102;50.906;6.972;2023-06-04T08:45:00;101328.53;;;20.13;35.54
54194;BME280;40102;50.906;6.972;2023-06-04T08:47:25;101335.53;;;20.16;35.37
54194;BME280;40102;50.906;6.972;2023-06-04T08:49:52;101341.97;;;20.15;34.76
54194;BME280;40102;50.906;6.972;2023-06-04T08:52:18;101351.25;;;20.12;34.41
54194;BME280;40102;50.906;6.972;2023-06-04T08:54:49;101342.97;;;20.14;33.61
54194;BME280;40102;50.906;6.972;2023-06-04T08:57:18;101352.69;;;20.16;33.31
54194;BME280;40102;50.906;6.972;2023-06-04T08:59:45;101341.31;;;20.22;33.09
54194;BME280;40102;50.906;6.972;2023-06-04T09:02:12;101345.63;;;20.25;32.64
54194;BME280;40102;50.906;6.972;2023-06-04T09:04:40;101337.06;;;20.29;32.07
54194;BME280;40102;50.906;6.972;2023-06-04T09:07:06;101346.66;;;20.33;32.10
54194;BME280;40102;50.906;6.972;2023-06-04T09:09:37;101346.16;;;20.40;32.66
54194;BME280;40102;50.906;6.972;2023-06-04T09:12:03;101346.91;;;20.42;32.89
54194;BME280;40102;50.906;6.972;2023-06-04T09:14:31;101351.22;;;20.44;33.14
54194;BME280;40102;50.906;6.972;2023-06-04T09:16:57;101338.47;;;20.45;33.00
54194;BME280;40102;50.906;6.972;2023-06-04T09:19:24;101345.50;;;20.47;32.44
54194;BME280;40102;50.906;6.972;2023-06-04T09:21:54;101342.38;;;20.52;32.14
54194;BME280;40102;50.906;6.972;2023-06-04T09:24:21;101338.28;;;20.57;32.83
54194;BME280;40102;50.906;6.972;2023-06-04T09:26:46;101334.28;;;20.61;32.61
54194;BME280;40102;50.906;6.972;2023-06-04T09:29:12;101340.59;;;20.62;31.08
54194;BME280;40102;50.906;6.972;2023-06-04T09:31:38;101345.47;;;20.68;30.09
54194;BME280;40102;50.906;6.972;2023-06-04T09:34:08;101335.06;;;20.73;30.64
54194;BME280;40102;50.906;6.972;2023-06-04T09:36:34;101339.38;;;20.76;30.70
54194;BME280;40102;50.906;6.972;2023-06-04T09:39:01;101340.94;;;20.78;30.98
54194;BME280;40102;50.906;6.972;2023-06-04T09:41:28;101340.94;;;20.78;31.00
54194;BME280;40102;50.906;6.972;2023-06-04T09:44:01;101340.63;;;20.81;31.17
54194;BME280;40102;50.906;6.972;2023-06-04T09:46:31;101347.25;;;20.88;29.97
54194;BME280;40102;50.906;6.972;2023-06-04T09:49:01;101346.72;;;20.94;30.70
54194;BME280;40102;50.906;6.972;2023-06-04T09:51:28;101344.28;;;21.01;30.67
54194;BME280;40102;50.906;6.972;2023-06-04T09:53:55;101340.44;;;21.03;30.51
54194;BME280;40102;50.906;6.972;2023-06-04T09:56:24;101338.72;;;21.02;30.33
54194;BME280;40102;50.906;6.972;2023-06-04T09:58:55;101338.84;;;21.01;29.68
54194;BME280;40102;50.906;6.972;2023-06-04T10:01:23;101334.88;;;21.05;30.18
54194;BME280;40102;50.906;6.972;2023-06-04T10:03:50;101341.63;;;21.11;30.27
54194;BME280;40102;50.906;6.972;2023-06-04T10:06:18;101338.91;;;21.20;30.49
54194;BME280;40102;50.906;6.972;2023-06-04T10:08:45;101341.84;;;21.28;29.86
54194;BME280;40102;50.906;6.972;2023-06-04T10:11:12;101335.69;;;21.36;29.62
54194;BME280;40102;50.906;6.972;2023-06-04T10:13:53;101337.28;;;21.39;29.98
54194;BME280;40102;50.906;6.972;2023-06-04T10:16:21;101331.25;;;21.35;29.75
54194;BME280;40102;50.906;6.972;2023-06-04T10:18:49;101336.41;;;21.38;29.61
54194;BME280;40102;50.906;6.972;2023-06-04T10:21:16;101326.41;;;21.39;29.95
54194;BME280;40102;50.906;6.972;2023-06-04T10:23:44;101331.13;;;21.46;30.67
54194;BME280;40102;50.906;6.972;2023-06-04T10:26:13;101330.56;;;21.52;30.40
54194;BME280;40102;50.906;6.972;2023-06-04T10:28:40;101321.81;;;21.49;30.20
54194;BME280;40102;50.906;6.972;2023-06-04T10:31:06;101325.84;;;21.54;30.24
54194;BME280;40102;50.906;6.972;2023-06-04T10:33:31;101322.84;;;21.57;29.97
54194;BME280;40102;50.906;6.972;2023-06-04T10:35:57;101337.88;;;21.61;29.63
54194;BME280;40102;50.906;6.972;2023-06-04T10:38:22;101324.69;;;21.57;29.48
54194;BME280;40102;50.906;6.972;2023-06-04T10:40:48;101324.97;;;21.54;29.73
54194;BME280;40102;50.906;6.972;2023-06-04T10:43:15;101326.00;;;21.62;30.82
54194;BME280;40102;50.906;6.972;2023-06-04T10:45:44;101323.00;;;21.65;30.10
54194;BME280;40102;50.906;6.972;2023-06-04T10:48:11;101318.97;;;21.70;30.12
54194;BME280;40102;50.906;6.972;2023-06-04T10:50:51;101317.25;;;21.78;29.71
54194;BME280;40102;50.906;6.972;2023-06-04T10:53:17;101306.38;;;21.88;29.57
54194;BME280;40102;50.906;6.972;2023-06-04T10:55:47;101307.53;;;22.05;30.45
54194;BME280;40102;50.906;6.972;2023-06-04T10:58:13;101314.41;;;22.09;29.44
54194;BME280;40102;50.906;6.972;2023-06-04T11:00:40;101316.28;;;22.08;29.75
54194;BME280;40102;50.906;6.972;2023-06-04T11:03:07;101313.25;;;22.02;30.05
54194;BME280;40102;50.906;6.972;2023-06-04T11:05:44;101309.94;;;21.98;30.02
54194;BME280;40102;50.906;6.972;2023-06-04T11:08:11;101308.66;;;21.92;29.02
54194;BME280;40102;50.906;6.972;2023-06-04T11:10:39;101318.97;;;21.89;28.87
54194;BME280;40102;50.906;6.972;2023-06-04T11:13:05;101307.50;;;21.85;28.70
54194;BME280;40102;50.906;6.972;2023-06-04T11:15:41;101306.78;;;21.93;29.37
54194;BME280;40102;50.906;6.972;2023-06-04T11:18:07;101313.13;;;22.03;29.15
54194;BME280;40102;50.906;6.972;2023-06-04T11:20:32;101317.69;;;22.12;28.98
54194;BME280;40102;50.906;6.972;2023-06-04T11:22:59;101310.78;;;22.27;29.16
54194;BME280;40102;50.906;6.972;2023-06-04T11:25:29;101300.00;;;22.36;29.16
54194;BME280;40102;50.906;6.972;2023-06-04T11:27:56;101297.03;;;22.29;27.77
54194;BME280;40102;50.906;6.972;2023-06-04T11:30:23;101301.75;;;22.27;28.31
54194;BME280;40102;50.906;6.972;2023-06-04T11:32:49;101293.84;;;22.34;29.13
54194;BME280;40102;50.906;6.972;2023-06-04T11:35:15;101285.09;;;22.40;29.99
54194;BME280;40102;50.906;6.972;2023-06-04T11:37:41;101286.03;;;22.58;29.88
54194;BME280;40102;50.906;6.972;2023-06-04T11:40:19;101290.03;;;22.63;28.53
54194;BME280;40102;50.906;6.972;2023-06-04T11:42:46;101287.56;;;22.70;29.20
54194;BME280;40102;50.906;6.972;2023-06-04T11:45:16;101286.00;;;22.68;29.15
54194;BME280;40102;50.906;6.972;2023-06-04T11:47:53;101282.41;;;22.67;28.74
54194;BME280;40102;50.906;6.972;2023-06-04T11:50:19;101280.94;;;22.73;28.95
54194;BME280;40102;50.906;6.972;2023-06-04T11:52:45;101279.00;;;22.92;29.02
54194;BME280;40102;50.906;6.972;2023-06-04T11:55:12;101286.03;;;22.95;28.36
54194;BME280;40102;50.906;6.972;2023-06-04T11:57:38;101284.81;;;22.80;27.42
54194;BME280;40102;50.906;6.972;2023-06-04T12:00:05;101287.09;;;22.75;27.94
54194;BME280;40102;50.906;6.972;2023-06-04T12:02:37;101284.22;;;22.76;28.64
54194;BME280;40102;50.906;6.972;2023-06-04T12:05:16;101274.72;;;22.90;27.79
54194;BME280;40102;50.906;6.972;2023-06-04T12:07:46;101274.81;;;22.98;28.12
54194;BME280;40102;50.906;6.972;2023-06-04T12:10:12;101283.66;;;23.10;27.82
54194;BME280;40102;50.906;6.972;2023-06-04T12:12:38;101277.66;;;23.24;27.82
54194;BME280;40102;50.906;6.972;2023-06-04T12:15:06;101289.16;;;23.45;28.22
54194;BME280;40102;50.906;6.972;2023-06-04T12:17:32;101273.13;;;23.60;28.07
54194;BME280;40102;50.906;6.972;2023-06-04T12:19:58;101270.94;;;23.64;26.57
54194;BME280;40102;50.906;6.972;2023-06-04T12:22:24;101269.78;;;23.66;26.91
54194;BME280;40102;50.906;6.972;2023-06-04T12:24:55;101271.72;;;23.74;27.70
54194;BME280;40102;50.906;6.972;2023-06-04T12:27:22;101262.56;;;23.83;27.19
54194;BME280;40102;50.906;6.972;2023-06-04T12:30:02;101263.72;;;23.98;27.72
54194;BME280;40102;50.906;6.972;2023-06-04T12:32:29;101254.19;;;24.02;27.25
54194;BME280;40102;50.906;6.972;2023-06-04T12:34:55;101254.47;;;24.17;27.98
54194;BME280;40102;50.906;6.972;2023-06-04T12:37:22;101252.34;;;24.29;26.56
54194;BME280;40102;50.906;6.972;2023-06-04T12:39:47;101252.72;;;24.34;26.22
54194;BME280;40102;50.906;6.972;2023-06-04T12:42:13;101259.63;;;24.46;26.24
54194;BME280;40102;50.906;6.972;2023-06-04T12:44:41;101258.13;;;24.51;25.95
54194;BME280;40102;50.906;6.972;2023-06-04T12:47:07;101255.59;;;24.58;27.11
54194;BME280;40102;50.906;6.972;2023-06-04T12:49:33;101260.19;;;24.58;25.39
54194;BME280;40102;50.906;6.972;2023-06-04T12:51:59;101255.97;;;24.63;26.41